Greenville, Wisconsin
Current Conditions -  °F | °C
As of 12:15 AM on Sunday 21 Dec 2014 (Local Time) from KATW Reporting Station
Haze Haze  
Wind Chill: 23°   Ceiling: 2600
Heat Index: 28°   Visibility: 5mi
Dew Point: 28°   Wind: 5mph
Humidity: 100%   Direction: 160°SSE
Pressure: 30.19"   Gusts: NA
Location:  44.3°N, 88.54°W
Report Text: KATW 210615Z AUTO 16004KT 5SM BR OVC026 M02/M02 A3019 RMK AO2
Loading
Personal Weather Stations






























Interactive Weather Map New forecast layout! Learn more

10-Day Weather Forecast

Advertisements
Track Severe Weather on mobile